TOURFACTS.DK  
Stats and Facts from Tour de France.

Tour de France 2019 starts in 320 days
  Riders   Stages   Teams   Summits   Yearly  


 
Search by year

After 2018 - Stage 21:
 15000 starters.
  5165 different riders.
  638 teams.
  2253 stages.
  456 restdays.
  442940.60 km.
  5684 abandonnees.


Top 3
GC
Geraint Thomas83:17:13
Tom Dumoulin83:19:04
Christopher Froome83:19:37
Climb
Julian Alaphilippe170 pt.
Warren Barguil91 pt.
Rafal Majka76 pt.
Sprint
Peter Sagan477 pt.
Alexander Kristoff246 pt.
Arnaud Démare203 pt.
Youth
Pierre-Roger Latou..83:39:26
Egan Bernal83:45:05
Guillaume Martin84:01:31
Facts from Tour de France 2017
  |   Stages.  |   Stage winners.  |   Days in yellow  |   Average speed.  |   Route.  |   Teams.  |   All riders.  |   Rookies.  |  

  |   Withdrawls.  |   GC.  |   Polka  |   Green  |   White  |   Summits. (In tour)  |   Miscellaneous.  |  

Stage 8 on 08 - 07 - 2017
         Owning:    Christopher Froome      Lilian Calmejane      Marcel Kittel      Simon Yates  

Pick a stage:  1 2 3 4 5 6 7 8 9 10 11 12 13 14 15 16 17 18 19 20 21
  DoleStation-des-Rousses | Dist: 187.50 km.
Cat: 3Col de la JouxFRAWarren Barguil2 points 
Cat: 2Côte de ViryFRAWarren Barguil5 points 
Cat: 1Côte de la Combe de Laisia-Les Molunes FRALilian Calmejane10 points 

Average speed for all riders in stage:  38,968 km./hr.
    Place:Name:Team:Time:Km/h:
1
FRALilian CalmejaneFRADirect Energie04:30:29  +  00:00:00=41,592 
2
NEDRobert GesinkNLDTeam Lotto NL - Jumbo04:31:06  +  00:00:37=41,498 
3
FRAGuillaume MartinBELWanty – Groupe Gobert04:31:19  +  00:00:50=41,464 
44 FRANicolas RocheUSABMC Racing Team04:31:19  +  00:00:50=41,464 
55 CZERoman KreuzigerAUSOrica - Scott04:31:19  +  00:00:50=41,464 
66 ITAFabio AruKAZAstana Pro Team04:31:19  +  00:00:50=41,464 
77 DENMichael ValgrenKAZAstana Pro Team04:31:19  +  00:00:50=41,464 
88 POLRafal MajkaDEUBora–Hansgrohe04:31:19  +  00:00:50=41,464 
99 USANathan BrownUSACannondale-Drapac Pro Cycling ..04:31:19  +  00:00:50=41,464 
1010 FRARomain HardyFRAFortuneo - Vital Concept04:31:19  +  00:00:50=41,464 
1111 COLCarlos Alberto BetancurESPMovistar Team04:31:19  +  00:00:50=41,464 
1212 RSALouis MeintjesUAEUAE Team Emirates04:31:19  +  00:00:50=41,464 
1313 ENGDaniel MartinBELQuick-Step Floors04:31:19  +  00:00:50=41,464 
1414 GEREmanuel BuchmannDEUBora–Hansgrohe04:31:19  +  00:00:50=41,464 
1515 ESPMikel Landa MeanaGBRSky Procycling04:31:19  +  00:00:50=41,464 
1616 ITADamiano CarusoUSABMC Racing Team04:31:19  +  00:00:50=41,464 
1717 AUSRichie PorteUSABMC Racing Team04:31:19  +  00:00:50=41,464 
1818 KENChristopher FroomeGBRSky Procycling04:31:19  +  00:00:50=41,464 
1919 NZLGeorge BennettNLDTeam Lotto NL - Jumbo04:31:19  +  00:00:50=41,464 
2020 COLNairo QuintanaESPMovistar Team04:31:19  +  00:00:50=41,464 
2121 COLJohan Esteban ChavesAUSOrica - Scott04:31:19  +  00:00:50=41,464 
2222 FRABrice FeilluFRAFortuneo - Vital Concept04:31:19  +  00:00:50=41,464 
2323 FRAPierre-Roger LatourFRAAg2r La Mondiale04:31:19  +  00:00:50=41,464 
2424 BELThomas DegandBELWanty – Groupe Gobert04:31:19  +  00:00:50=41,464 
2525 SUIJakob FuglsangKAZAstana Pro Team04:31:19  +  00:00:50=41,464 
2626 FRAAlexis VuillermozFRAAg2r La Mondiale04:31:19  +  00:00:50=41,464 
2727 FRARomain BardetFRAAg2r La Mondiale04:31:19  +  00:00:50=41,464 
2828 ESPDaniel NavarroFRACofidis – Solutions Crédits04:31:19  +  00:00:50=41,464 
2929 ENGSimon YatesAUSOrica - Scott04:31:19  +  00:00:50=41,464 
3030 ESPAlberto ContadorUSATrek - Segafredo04:31:19  +  00:00:50=41,464 
3131 ESPJonathan CastroviejoESPMovistar Team04:31:19  +  00:00:50=41,464 
3232 ARGEduardo SepulvedaFRAFortuneo - Vital Concept04:31:19  +  00:00:50=41,464 
3333 WALGeraint ThomasGBRSky Procycling04:31:19  +  00:00:50=41,464 
3434 COLRigoberto UránUSACannondale-Drapac Pro Cycling ..04:31:19  +  00:00:50=41,464 
3535 FRAPierre RollandUSACannondale-Drapac Pro Cycling ..04:31:19  +  00:00:50=41,464 
3636 USAAndrew TalanskyUSACannondale-Drapac Pro Cycling ..04:31:19  +  00:00:50=41,464 
3737 ESPMikel NieveGBRSky Procycling04:31:19  +  00:00:50=41,464 
3838 COLSergio Luis HenaoGBRSky Procycling04:31:19  +  00:00:50=41,464 
3939 ESPHaimar ZubeldiaUSATrek - Segafredo04:31:19  +  00:00:50=41,464 
4040 BELSerge PauwelsZAFDimension Data04:31:19  +  00:00:50=41,464 
4141 POLPawel PoljanskiDEUBora–Hansgrohe04:31:25  +  00:00:56=41,449 
4242 FRATony GallopinBELLotto Soudal04:32:28  +  00:01:59=41,289 
4343 ESPLuis Angel MateFRACofidis – Solutions Crédits04:32:54  +  00:02:25=41,224 
4444 KAZAlexey LutsenkoKAZAstana Pro Team04:37:28  +  00:06:59=40,545 
4545 COLJarlinson Pantano GomezUSATrek - Segafredo04:37:28  +  00:06:59=40,545 
4646 KAZAndrey ZeitsKAZAstana Pro Team04:39:16  +  00:08:47=40,284 
4747 FRAWarren BarguilDEUTeam Sunweb04:39:16  +  00:08:47=40,284 
4848 FRAArthur VichotFRAFDJ04:40:03  +  00:09:34=40,171 
4949 NEDMarco MinnaardBELWanty – Groupe Gobert04:40:03  +  00:09:34=40,171 
5050 AUSJay McCarthyDEUBora–Hansgrohe04:40:03  +  00:09:34=40,171 
5151 FRAYoann OffredoBELWanty – Groupe Gobert04:40:03  +  00:09:34=40,171 
5252 SLOJanez BrajkovicBHRBahrain-Merida04:40:03  +  00:09:34=40,171 
5353 HRVRobert KiserlovskiCHETeam Katusha - Alpecin04:40:03  +  00:09:34=40,171 
5454 CZEOndrej CinkBHRBahrain-Merida04:40:03  +  00:09:34=40,171 
5555 SUIMathias FrankFRAAg2r La Mondiale04:40:03  +  00:09:34=40,171 
5656 FRAAxel DomontFRAAg2r La Mondiale04:40:03  +  00:09:34=40,171 
5757 BELJan BakelantsFRAAg2r La Mondiale04:40:03  +  00:09:34=40,171 
5858 FRASylvain ChavanelFRADirect Energie04:40:03  +  00:09:34=40,171 
5959 AUSSimon ClarkeUSACannondale-Drapac Pro Cycling ..04:40:03  +  00:09:34=40,171 
6060 PORTiago PintoCHETeam Katusha - Alpecin04:43:41  +  00:13:12=39,657 
6161 FRAAmaël MoinardUSABMC Racing Team04:43:41  +  00:13:12=39,657 
6262 BELGreg Van AvermaetUSABMC Racing Team04:43:41  +  00:13:12=39,657 
6363 AUSDamien HowsonAUSOrica - Scott04:43:41  +  00:13:12=39,657 
6464 BELJens KeukeleireAUSOrica - Scott04:43:41  +  00:13:12=39,657 
6565 NEDDylan Van BaarleUSACannondale-Drapac Pro Cycling ..04:43:57  +  00:13:28=39,620 
6666 GERGianluca BrambillaBELQuick-Step Floors04:43:57  +  00:13:28=39,620 
6767 BELOliver NaesenFRAAg2r La Mondiale04:43:57  +  00:13:28=39,620 
6868 BELTiesj BenootBELLotto Soudal04:43:57  +  00:13:28=39,620 
6969 FRACyril GautierFRAAg2r La Mondiale04:43:57  +  00:13:28=39,620 
7070 FRAAngelo TulikFRADirect Energie04:43:57  +  00:13:28=39,620 
7171 FRARudy MolardFRAFDJ04:43:57  +  00:13:28=39,620 
7272 NEDBauke MollemaUSATrek - Segafredo04:43:57  +  00:13:28=39,620 
7373 NEDLaurens ten DamDEUTeam Sunweb04:43:57  +  00:13:28=39,620 
7474 LUXBen GastauerFRAAg2r La Mondiale04:43:57  +  00:13:28=39,620 
7575 FRAPerrig QuemeneurFRADirect Energie04:45:43  +  00:15:14=39,375 
7676 FRAThibaut PinotFRAFDJ04:45:43  +  00:15:14=39,375 
7777 BELThomas De GendtBELLotto Soudal04:45:43  +  00:15:14=39,375 
7878 AUSAdam HansenBELLotto Soudal04:45:43  +  00:15:14=39,375 
7979 AUTMichael GoglUSATrek - Segafredo04:47:21  +  00:16:52=39,151 
8080 FRAMaxime BouetFRAFortuneo - Vital Concept04:47:21  +  00:16:52=39,151 
8181 SUIMichael SchärUSABMC Racing Team04:47:44  +  00:17:15=39,099 
8282 GERNils PolittCHETeam Katusha - Alpecin04:47:44  +  00:17:15=39,099 
8383 NEDKoen De KortUSATrek - Segafredo04:51:25  +  00:20:56=38,605 
8484 ITAFabio FellineUSATrek - Segafredo04:51:25  +  00:20:56=38,605 
8585 ITAAlberto BettiolUSACannondale-Drapac Pro Cycling ..04:51:25  +  00:20:56=38,605 
8686 GERNikias ArndtDEUTeam Sunweb04:51:25  +  00:20:56=38,605 
8787 BELJulien VermoteBELQuick-Step Floors04:51:25  +  00:20:56=38,605 
8888 GERRick ZabelCHETeam Katusha - Alpecin04:51:25  +  00:20:56=38,605 
8989 POLMichal KwiatkowskiGBRSky Procycling04:51:25  +  00:20:56=38,605 
9090 FRANicolas EdetFRACofidis – Solutions Crédits04:51:25  +  00:20:56=38,605 
9191 CZEZdenek StybarBELQuick-Step Floors04:51:25  +  00:20:56=38,605 
9292 ITADario CataldoKAZAstana Pro Team04:51:25  +  00:20:56=38,605 
9393 GERPaul MartensNLDTeam Lotto NL - Jumbo04:51:25  +  00:20:56=38,605 
9494 AUTMarco HallerCHETeam Katusha - Alpecin04:51:25  +  00:20:56=38,605 
9595 ITADiego UlissiUAEUAE Team Emirates04:51:25  +  00:20:56=38,605 
9696 NEDMaurits LammertinkCHETeam Katusha - Alpecin04:51:25  +  00:20:56=38,605 
9797 BELJürgen RoelandtsBELLotto Soudal04:51:25  +  00:20:56=38,605 
9898 BELPieter VanspeybrouckBELWanty – Groupe Gobert04:51:25  +  00:20:56=38,605 
9999 HRVKristijan DurasekUAEUAE Team Emirates04:51:25  +  00:20:56=38,605 
100100 FRAFlorian VachonFRAFortuneo - Vital Concept04:51:25  +  00:20:56=38,605 
101101 ITAManuele MoriUAEUAE Team Emirates04:51:25  +  00:20:56=38,605 
102102 ITAMatteo BonoUAEUAE Team Emirates04:51:25  +  00:20:56=38,605 
103103 FRAPierre-Luc PérichonFRAFortuneo - Vital Concept04:51:25  +  00:20:56=38,605 
104104 ETHTsgabu Gebremaryan GrmayBHRBahrain-Merida04:51:25  +  00:20:56=38,605 
105105 SUIMichael AlbasiniAUSOrica - Scott04:51:25  +  00:20:56=38,605 
106106 COLDarwin AtapumaUAEUAE Team Emirates04:51:25  +  00:20:56=38,605 
107107 SUIStefan KüngUSABMC Racing Team04:51:25  +  00:20:56=38,605 
108108 FRALaurent PichonFRAFortuneo - Vital Concept04:51:25  +  00:20:56=38,605 
109109 FRACyril LemoineFRACofidis – Solutions Crédits04:51:25  +  00:20:56=38,605 
110110 CRCAndrey AmadorESPMovistar Team04:51:25  +  00:20:56=38,605 
111111 KAZBakhtiyar KozhatayevKAZAstana Pro Team04:51:25  +  00:20:56=38,605 
112112 ENGBen SwiftUAEUAE Team Emirates04:51:25  +  00:20:56=38,605 
113113 RSADaryl ImpeyAUSOrica - Scott04:51:25  +  00:20:56=38,605 
114114 GERJohn DegenkolbUSATrek - Segafredo04:51:25  +  00:20:56=38,605 
115115 ENGScott ThwaitesZAFDimension Data04:51:25  +  00:20:56=38,605 
116116 NORVegard Stake LaengenUAEUAE Team Emirates04:51:25  +  00:20:56=38,605 
117117 NZLPaddy BevinUSACannondale-Drapac Pro Cycling ..04:51:25  +  00:20:56=38,605 
118118 SUIDanilo WyssUSABMC Racing Team04:51:25  +  00:20:56=38,605 
119119 POLMaciej BodnarDEUBora–Hansgrohe04:51:25  +  00:20:56=38,605 
120120 NOREdvald Boasson HagenZAFDimension Data04:51:25  +  00:20:56=38,605 
121121 NEDMike TeunissenDEUTeam Sunweb04:51:25  +  00:20:56=38,605 
122122 SLOPrimoz RoglicNLDTeam Lotto NL - Jumbo04:51:25  +  00:20:56=38,605 
123123 AUSMichael MatthewsDEUTeam Sunweb04:51:25  +  00:20:56=38,605 
124124 ESPJavier Moreno BazánBHRBahrain-Merida04:51:25  +  00:20:56=38,605 
125125 KAZDmitriy GruzdevKAZAstana Pro Team04:51:25  +  00:20:56=38,605 
126126 ITAAlessandro De MarchiUSABMC Racing Team04:51:25  +  00:20:56=38,605 
127127 ESPJesus HerradaESPMovistar Team04:51:25  +  00:20:56=38,605 
128128 BELPhilippe GilbertBELQuick-Step Floors04:47:44  +  00:17:15=39,099 
129129 BELFrederik BackaertBELWanty – Groupe Gobert04:47:44  +  00:17:15=39,099 
130130 GERMarcus BurghardtDEUBora–Hansgrohe04:47:44  +  00:17:15=39,099 
131131 GERJasha SütterlinESPMovistar Team04:54:58  +  00:24:29=38,140 
132132 ESPImanol ErvitiESPMovistar Team04:54:58  +  00:24:29=38,140 
133133 AUSMathew HaymanAUSOrica - Scott04:54:58  +  00:24:29=38,140 
134134 ITAMatteo TrentinBELQuick-Step Floors04:57:55  +  00:27:26=37,762 
135135 SLOGrega BoleBHRBahrain-Merida04:58:18  +  00:27:49=37,714 
136136 FRARomain SicardFRADirect Energie04:58:59  +  00:28:30=37,628 
137137 NZLDion SmithBELWanty – Groupe Gobert05:02:03  +  00:31:34=37,245 
138138 NZLJack BauerBELQuick-Step Floors05:02:03  +  00:31:34=37,245 
139139 ITAFabio SabatiniBELQuick-Step Floors05:02:03  +  00:31:34=37,245 
140140 GERChristian KneesGBRSky Procycling05:02:03  +  00:31:34=37,245 
141141 GERMarcel SiebergBELLotto Soudal05:02:03  +  00:31:34=37,245 
142142 SUIReto HollensteinCHETeam Katusha - Alpecin05:02:03  +  00:31:34=37,245 
143143 JPNYukiya ArashiroBHRBahrain-Merida05:02:03  +  00:31:34=37,245 
144144 FRAYohann GèneFRADirect Energie05:02:03  +  00:31:34=37,245 
145145 FRANacer BouhanniFRACofidis – Solutions Crédits05:02:03  +  00:31:34=37,245 
146146 FRAElie GesbertFRAFortuneo - Vital Concept05:02:03  +  00:31:34=37,245 
147147 FRAAdrien PetitFRADirect Energie05:02:03  +  00:31:34=37,245 
148148 ESPMarkel IrizarUSATrek - Segafredo05:02:03  +  00:31:34=37,245 
149149 BELDimitri ClaeysFRACofidis – Solutions Crédits05:02:03  +  00:31:34=37,245 
150150 GERMarcel KittelBELQuick-Step Floors05:02:03  +  00:31:34=37,245 
151151 DENLars BakBELLotto Soudal05:02:03  +  00:31:34=37,245 
152152 GERAndré GreipelBELLotto Soudal05:02:03  +  00:31:34=37,245 
153153 FRAThomas BoudatFRADirect Energie05:02:03  +  00:31:34=37,245 
154154 AUTBernhard EiselZAFDimension Data05:02:03  +  00:31:34=37,245 
155155 UKRAndriy GrivkoKAZAstana Pro Team05:02:03  +  00:31:34=37,245 
156156 FRAJulien SimonFRACofidis – Solutions Crédits05:02:03  +  00:31:34=37,245 
157157 GERRobert WagnerNLDTeam Lotto NL - Jumbo05:02:03  +  00:31:34=37,245 
158158 NEDTom LeezerNLDTeam Lotto NL - Jumbo05:02:03  +  00:31:34=37,245 
159159 DDRRüdiger SeligDEUBora–Hansgrohe05:02:03  +  00:31:34=37,245 
160160 ITASonny ColbrelliBHRBahrain-Merida05:02:03  +  00:31:34=37,245 
161161 GERTony MartinCHETeam Katusha - Alpecin05:02:03  +  00:31:34=37,245 
162162 ITADaniele BennatiESPMovistar Team05:02:03  +  00:31:34=37,245 
163163 ITAAndrea PasqualonBELWanty – Groupe Gobert05:02:03  +  00:31:34=37,245 
164164 SLOBorut BozicBHRBahrain-Merida05:02:03  +  00:31:34=37,245 
165165 ITAMarco MarcatoUAEUAE Team Emirates05:02:03  +  00:31:34=37,245 
166166 BELGuillaume Van KeirsbulckBELWanty – Groupe Gobert05:02:03  +  00:31:34=37,245 
167167 RSAJaco VenterZAFDimension Data05:02:03  +  00:31:34=37,245 
168168 RSAReinardt Janse Van RensburgZAFDimension Data05:02:03  +  00:31:34=37,245 
169169 FRAThomas VoecklerFRADirect Energie05:02:03  +  00:31:34=37,245 
170170 FRAOlivier Le GacFRAFDJ05:02:03  +  00:31:34=37,245 
171171 ITADavide CimolaiFRAFDJ05:02:03  +  00:31:34=37,245 
172172 FRAChristophe LaporteFRACofidis – Solutions Crédits05:02:03  +  00:31:34=37,245 
173173 FRAFlorian SénéchalFRACofidis – Solutions Crédits05:02:03  +  00:31:34=37,245 
174174 NEDRamon SinkeldamDEUTeam Sunweb05:02:03  +  00:31:34=37,245 
175175 NEDAlbert TimmerDEUTeam Sunweb05:02:03  +  00:31:34=37,245 
176176 NEDDylan GroenewegenNLDTeam Lotto NL - Jumbo05:02:03  +  00:31:34=37,245 
177177 USATaylor PhinneyUSACannondale-Drapac Pro Cycling ..05:02:03  +  00:31:34=37,245 
178178 ENGDaniel McLayFRAFortuneo - Vital Concept05:02:03  +  00:31:34=37,245 
179179 ENGStephen CummingsZAFDimension Data05:02:03  +  00:31:34=37,245 
180180 NEDJos Van EmdenNLDTeam Lotto NL - Jumbo05:02:03  +  00:31:34=37,245 
181181 NEDTimo RoosenNLDTeam Lotto NL - Jumbo05:02:03  +  00:31:34=37,245 
182182 BLRVasil KiryienkaGBRSky Procycling05:02:03  +  00:31:34=37,245 
183183 ITAJacopo GuarnieriFRAFDJ05:02:03  +  00:31:34=37,245 
184184 GERSimon GeschkeDEUTeam Sunweb05:02:03  +  00:31:34=37,245 
185185 NORAlexander KristoffCHETeam Katusha - Alpecin05:02:03  +  00:31:34=37,245 
186186 FRAMickael DelageFRAFDJ05:08:02  +  00:37:33=36,522 
187187 URSIgnatas KonovalovasFRAFDJ05:08:02  +  00:37:33=36,522 
188188 FRAArnaud DémareFRAFDJ05:08:02  +  00:37:33=36,522 
189189 NEDRoy CurversDEUTeam Sunweb05:08:02  +  00:37:33=36,522 
190190 WALLuke RoweGBRSky Procycling05:08:02  +  00:37:33=36,522 
191191 AUSMark RenshawZAFDimension Data05:08:02  +  00:37:33=36,522 
192192 BELTim WellensBELLotto Soudal05:08:02  +  00:37:33=36,522 
193193 SVKJuraj SaganDEUBora–Hansgrohe05:10:59  +  00:40:30=36,176 

Todays birthdays.

1878  Jean Novo
1883  Jules Chabas
1890  Ange Aubry
1893  Roger Marye
1913  Paul Maye
1914  Lucien Vlaemynck
1915  Alphonse Antoine
1932  Rolf Graf
1953  Julio Rubiano
1959  Jos Haex
1959  Gerard Veldscholten
1963  Pablo Moreno
1964  Juan Castillo
1977  Iban Mayo
1994  Fernando Gaviria